Strona główna
METAR-TAF:

METAR-TAF

Lotnisko :

Port lotniczy Antwerpia

Antwerpia, Belgia

Szerokość geograficzna: 51-12N, Długość geograficzna: 004-28E, wysokość: 12 m

Aktualna obserwacja pogody

Raport powstał 24 minut temu, godzina 11:20 UTC
Wiatr 12 kt od południe
Temperatura 6°C
Wilgotność 65%
Ciśnienie 1023 hPa
Widzialność 10 km lub więcej
Brak chmur poniżej 1500 m i brak chmur cumulonimbus

METAR: EBAW 101120Z 19012KT CAVOK 06/M00 Q1023 NOSIG

czas: 12:44 (11:44 UTC)

Prognoza

Raport powstał 34 minut temu, godzina 11:10 UTC
Prognoza ważna od 10 godzina 12 UTC do 10 godzina 21 UTC
Wiatr 14 kt od południe
Widzialność 10 km lub więcej
Brak chmur poniżej 1500 m i brak chmur cumulonimbus
Stopniowe zmiany
od 10 godzina 16 UTC do 10 godzina 18 UTC
Wiatr 16 kt od południe w porywach dochodzący do 28 kt

TAF: EBAW 101110Z 1012/1021 19014KT CAVOK BECMG 1016/1018 19016G28KT

Obserwacja i prognoza pogody dla ponad 4000 lotnisk (raport METAR i TAF).

Dostępne stacje oznaczono żółtymi i czerwonymi punktami na mapie.

Najedź kursorem aby zobaczyć nazwę stacji.

Kliknij aby zobaczyć obserwacje i prognozy pogody.

Aby zmienić mapę: kliknij na zielony przycisk z czarnym krzyżykiem, aby powiększyć; na zielony przycisk z myślnikiem, aby pomniejszyć; na zielone strzałki, aby przejść do map sąsiednich.


METAR-TAF: